Efland, North Carolina
Current Conditions -  °F | °C
As of 11:56 PM on Friday 19 Dec 2014 (Local Time) from KIGX Reporting Station
Clear Clear  
Wind Chill: 37°   Ceiling: Unl
Heat Index: 37°   Visibility: 10mi
Dew Point: 30°   Wind: 3mph
Humidity: 76%   Direction: 300°WNW
Pressure: 30.22"   Gusts: NA
Location:  36.08°N, 79.17°W
Report Text: KIGX 200456Z AUTO 30003KT 10SM CLR 03/M01 A3022 RMK AO2 SLP232 T00281011 401170028
Loading
Personal Weather Stations






























Interactive Weather Map New forecast layout! Learn more

10-Day Weather Forecast

Advertisements
Track Severe Weather on mobile